sensor_id;sensor_type;location;lat;lon;timestamp;P1;durP1;ratioP1;P2;durP2;ratioP2
19863;SDS011;10094;48.820;9.226;2023-03-01T00:04:38;22.90;;;13.73;;
19863;SDS011;10094;48.820;9.226;2023-03-01T00:11:24;20.75;;;13.25;;
19863;SDS011;10094;48.820;9.226;2023-03-01T00:18:08;19.17;;;12.40;;
19863;SDS011;10094;48.820;9.226;2023-03-01T00:24:51;22.63;;;13.95;;
19863;SDS011;10094;48.820;9.226;2023-03-01T00:31:33;21.38;;;14.35;;
19863;SDS011;10094;48.820;9.226;2023-03-01T00:38:16;19.25;;;12.07;;
19863;SDS011;10094;48.820;9.226;2023-03-01T00:44:58;19.63;;;14.68;;
19863;SDS011;10094;48.820;9.226;2023-03-01T00:51:41;20.17;;;14.13;;
19863;SDS011;10094;48.820;9.226;2023-03-01T00:58:23;20.67;;;13.90;;
19863;SDS011;10094;48.820;9.226;2023-03-01T01:05:06;22.13;;;14.00;;
19863;SDS011;10094;48.820;9.226;2023-03-01T01:11:49;25.05;;;15.27;;
19863;SDS011;10094;48.820;9.226;2023-03-01T01:18:33;21.02;;;14.60;;
19863;SDS011;10094;48.820;9.226;2023-03-01T01:25:16;21.38;;;14.82;;
19863;SDS011;10094;48.820;9.226;2023-03-01T01:31:58;21.98;;;13.65;;
19863;SDS011;10094;48.820;9.226;2023-03-01T01:38:41;21.02;;;13.35;;
19863;SDS011;10094;48.820;9.226;2023-03-01T01:45:28;21.73;;;14.80;;
19863;SDS011;10094;48.820;9.226;2023-03-01T01:59:04;20.25;;;13.85;;
19863;SDS011;10094;48.820;9.226;2023-03-01T02:05:55;22.50;;;14.02;;
19863;SDS011;10094;48.820;9.226;2023-03-01T02:12:42;24.02;;;14.40;;
19863;SDS011;10094;48.820;9.226;2023-03-01T02:19:31;21.70;;;14.40;;
19863;SDS011;10094;48.820;9.226;2023-03-01T02:26:48;18.45;;;12.52;;
19863;SDS011;10094;48.820;9.226;2023-03-01T02:33:35;26.17;;;13.70;;
19863;SDS011;10094;48.820;9.226;2023-03-01T02:40:19;21.65;;;14.98;;
19863;SDS011;10094;48.820;9.226;2023-03-01T02:47:03;22.90;;;13.95;;
19863;SDS011;10094;48.820;9.226;2023-03-01T03:00:52;23.80;;;13.63;;
19863;SDS011;10094;48.820;9.226;2023-03-01T03:07:35;20.75;;;14.25;;
19863;SDS011;10094;48.820;9.226;2023-03-01T03:14:19;25.00;;;14.90;;
19863;SDS011;10094;48.820;9.226;2023-03-01T03:21:03;24.92;;;15.38;;
19863;SDS011;10094;48.820;9.226;2023-03-01T03:27:52;21.23;;;14.25;;
19863;SDS011;10094;48.820;9.226;2023-03-01T03:34:38;24.30;;;14.60;;
19863;SDS011;10094;48.820;9.226;2023-03-01T03:41:20;21.98;;;15.25;;
19863;SDS011;10094;48.820;9.226;2023-03-01T03:48:03;24.85;;;15.10;;
19863;SDS011;10094;48.820;9.226;2023-03-01T03:54:47;24.83;;;15.73;;
19863;SDS011;10094;48.820;9.226;2023-03-01T04:01:29;22.60;;;15.43;;
19863;SDS011;10094;48.820;9.226;2023-03-01T04:08:12;21.63;;;14.55;;
19863;SDS011;10094;48.820;9.226;2023-03-01T04:14:55;22.05;;;14.48;;
19863;SDS011;10094;48.820;9.226;2023-03-01T04:21:37;25.90;;;14.98;;
19863;SDS011;10094;48.820;9.226;2023-03-01T04:28:20;20.92;;;14.60;;
19863;SDS011;10094;48.820;9.226;2023-03-01T04:35:06;22.63;;;14.63;;
19863;SDS011;10094;48.820;9.226;2023-03-01T04:41:48;20.23;;;13.32;;
19863;SDS011;10094;48.820;9.226;2023-03-01T04:48:31;25.45;;;15.43;;
19863;SDS011;10094;48.820;9.226;2023-03-01T04:55:14;23.85;;;15.88;;
19863;SDS011;10094;48.820;9.226;2023-03-01T05:01:57;23.58;;;16.33;;
19863;SDS011;10094;48.820;9.226;2023-03-01T05:08:40;25.48;;;15.68;;
19863;SDS011;10094;48.820;9.226;2023-03-01T05:15:24;25.25;;;16.42;;
19863;SDS011;10094;48.820;9.226;2023-03-01T05:22:10;22.98;;;15.95;;
19863;SDS011;10094;48.820;9.226;2023-03-01T05:28:53;22.55;;;15.80;;
19863;SDS011;10094;48.820;9.226;2023-03-01T05:35:41;23.52;;;14.98;;
19863;SDS011;10094;48.820;9.226;2023-03-01T05:42:24;23.70;;;16.77;;
19863;SDS011;10094;48.820;9.226;2023-03-01T05:49:06;23.50;;;15.35;;
19863;SDS011;10094;48.820;9.226;2023-03-01T05:55:49;23.00;;;15.18;;
19863;SDS011;10094;48.820;9.226;2023-03-01T06:02:31;22.80;;;15.40;;
19863;SDS011;10094;48.820;9.226;2023-03-01T06:09:13;26.60;;;15.95;;
19863;SDS011;10094;48.820;9.226;2023-03-01T06:15:56;22.08;;;14.43;;
19863;SDS011;10094;48.820;9.226;2023-03-01T06:22:38;24.33;;;15.70;;
19863;SDS011;10094;48.820;9.226;2023-03-01T06:29:21;25.60;;;15.77;;
19863;SDS011;10094;48.820;9.226;2023-03-01T06:36:04;23.83;;;16.05;;
19863;SDS011;10094;48.820;9.226;2023-03-01T06:42:47;28.90;;;16.88;;
19863;SDS011;10094;48.820;9.226;2023-03-01T06:49:31;24.00;;;15.68;;
19863;SDS011;10094;48.820;9.226;2023-03-01T06:56:13;26.33;;;16.95;;
19863;SDS011;10094;48.820;9.226;2023-03-01T07:02:58;23.63;;;14.60;;
19863;SDS011;10094;48.820;9.226;2023-03-01T07:09:42;24.83;;;16.08;;
19863;SDS011;10094;48.820;9.226;2023-03-01T07:16:24;26.42;;;17.75;;
19863;SDS011;10094;48.820;9.226;2023-03-01T07:23:07;23.83;;;15.45;;
19863;SDS011;10094;48.820;9.226;2023-03-01T07:29:49;24.48;;;16.15;;
19863;SDS011;10094;48.820;9.226;2023-03-01T07:36:31;21.25;;;17.23;;
19863;SDS011;10094;48.820;9.226;2023-03-01T07:43:14;21.67;;;16.77;;
19863;SDS011;10094;48.820;9.226;2023-03-01T07:49:56;19.98;;;16.15;;
19863;SDS011;10094;48.820;9.226;2023-03-01T07:56:38;20.35;;;17.30;;
19863;SDS011;10094;48.820;9.226;2023-03-01T08:03:22;20.55;;;17.00;;
19863;SDS011;10094;48.820;9.226;2023-03-01T08:10:04;20.67;;;18.00;;
19863;SDS011;10094;48.820;9.226;2023-03-01T08:16:49;18.67;;;16.65;;
19863;SDS011;10094;48.820;9.226;2023-03-01T08:23:31;20.50;;;17.80;;
19863;SDS011;10094;48.820;9.226;2023-03-01T08:30:14;21.45;;;17.75;;
19863;SDS011;10094;48.820;9.226;2023-03-01T08:36:57;22.08;;;17.67;;
19863;SDS011;10094;48.820;9.226;2023-03-01T08:51:14;18.85;;;16.25;;
19863;SDS011;10094;48.820;9.226;2023-03-01T08:57:58;20.70;;;17.17;;
19863;SDS011;10094;48.820;9.226;2023-03-01T09:04:41;24.42;;;17.88;;
19863;SDS011;10094;48.820;9.226;2023-03-01T09:11:24;22.58;;;18.45;;
19863;SDS011;10094;48.820;9.226;2023-03-01T09:18:06;20.13;;;17.27;;
19863;SDS011;10094;48.820;9.226;2023-03-01T09:24:48;21.75;;;17.75;;
19863;SDS011;10094;48.820;9.226;2023-03-01T09:31:31;19.95;;;17.77;;
19863;SDS011;10094;48.820;9.226;2023-03-01T09:38:13;20.25;;;18.25;;
19863;SDS011;10094;48.820;9.226;2023-03-01T09:44:57;20.88;;;18.00;;
19863;SDS011;10094;48.820;9.226;2023-03-01T09:51:53;18.27;;;16.52;;
19863;SDS011;10094;48.820;9.226;2023-03-01T09:58:44;19.50;;;17.42;;
19863;SDS011;10094;48.820;9.226;2023-03-01T10:12:42;19.80;;;16.17;;
19863;SDS011;10094;48.820;9.226;2023-03-01T10:33:23;20.33;;;15.90;;
19863;SDS011;10094;48.820;9.226;2023-03-01T10:40:12;19.42;;;17.33;;
19863;SDS011;10094;48.820;9.226;2023-03-01T10:46:59;18.88;;;16.88;;
19863;SDS011;10094;48.820;9.226;2023-03-01T10:53:43;18.30;;;16.40;;
19863;SDS011;10094;48.820;9.226;2023-03-01T11:00:31;20.58;;;16.85;;
19863;SDS011;10094;48.820;9.226;2023-03-01T11:07:14;23.48;;;17.35;;
19863;SDS011;10094;48.820;9.226;2023-03-01T11:14:06;19.40;;;15.80;;
19863;SDS011;10094;48.820;9.226;2023-03-01T11:21:06;18.73;;;15.70;;
19863;SDS011;10094;48.820;9.226;2023-03-01T11:27:50;19.58;;;14.63;;
19863;SDS011;10094;48.820;9.226;2023-03-01T11:34:48;20.92;;;15.13;;
19863;SDS011;10094;48.820;9.226;2023-03-01T11:41:44;21.90;;;15.35;;
19863;SDS011;10094;48.820;9.226;2023-03-01T12:03:23;20.08;;;14.57;;
19863;SDS011;10094;48.820;9.226;2023-03-01T12:10:30;18.30;;;13.32;;
19863;SDS011;10094;48.820;9.226;2023-03-01T12:17:43;18.17;;;14.43;;
19863;SDS011;10094;48.820;9.226;2023-03-01T12:38:40;17.17;;;12.50;;
19863;SDS011;10094;48.820;9.226;2023-03-01T13:00:09;16.98;;;12.60;;
19863;SDS011;10094;48.820;9.226;2023-03-01T13:06:58;16.95;;;11.75;;
19863;SDS011;10094;48.820;9.226;2023-03-01T13:14:49;17.08;;;13.95;;
19863;SDS011;10094;48.820;9.226;2023-03-01T13:21:06;19.88;;;13.45;;
19863;SDS011;10094;48.820;9.226;2023-03-01T13:27:48;17.88;;;12.15;;
19863;SDS011;10094;48.820;9.226;2023-03-01T13:34:39;19.10;;;13.45;;
19863;SDS011;10094;48.820;9.226;2023-03-01T13:48:25;20.90;;;15.77;;
19863;SDS011;10094;48.820;9.226;2023-03-01T14:01:56;19.15;;;15.65;;
19863;SDS011;10094;48.820;9.226;2023-03-01T14:08:40;17.92;;;11.75;;
19863;SDS011;10094;48.820;9.226;2023-03-01T14:22:49;20.30;;;15.23;;
19863;SDS011;10094;48.820;9.226;2023-03-01T14:29:36;21.45;;;15.95;;
19863;SDS011;10094;48.820;9.226;2023-03-01T14:36:25;28.98;;;17.45;;
19863;SDS011;10094;48.820;9.226;2023-03-01T14:43:09;23.85;;;16.42;;
19863;SDS011;10094;48.820;9.226;2023-03-01T14:49:56;22.73;;;15.43;;
19863;SDS011;10094;48.820;9.226;2023-03-01T14:56:45;23.63;;;16.08;;
19863;SDS011;10094;48.820;9.226;2023-03-01T15:03:42;19.50;;;15.93;;
19863;SDS011;10094;48.820;9.226;2023-03-01T15:10:33;23.30;;;16.90;;
19863;SDS011;10094;48.820;9.226;2023-03-01T15:17:36;21.08;;;14.70;;
19863;SDS011;10094;48.820;9.226;2023-03-01T15:24:23;19.67;;;15.07;;
19863;SDS011;10094;48.820;9.226;2023-03-01T15:31:23;21.23;;;15.90;;
19863;SDS011;10094;48.820;9.226;2023-03-01T15:38:24;23.15;;;15.65;;
19863;SDS011;10094;48.820;9.226;2023-03-01T15:45:11;21.05;;;14.68;;
19863;SDS011;10094;48.820;9.226;2023-03-01T15:52:02;19.92;;;15.15;;
19863;SDS011;10094;48.820;9.226;2023-03-01T15:58:47;20.90;;;13.65;;
19863;SDS011;10094;48.820;9.226;2023-03-01T16:05:31;22.27;;;16.35;;
19863;SDS011;10094;48.820;9.226;2023-03-01T16:12:16;21.42;;;14.05;;
19863;SDS011;10094;48.820;9.226;2023-03-01T16:18:58;20.83;;;15.48;;
19863;SDS011;10094;48.820;9.226;2023-03-01T16:25:41;23.45;;;15.00;;
19863;SDS011;10094;48.820;9.226;2023-03-01T16:32:23;20.48;;;13.57;;
19863;SDS011;10094;48.820;9.226;2023-03-01T16:39:05;19.55;;;14.15;;
19863;SDS011;10094;48.820;9.226;2023-03-01T16:45:49;22.85;;;14.93;;
19863;SDS011;10094;48.820;9.226;2023-03-01T16:52:31;21.80;;;15.10;;
19863;SDS011;10094;48.820;9.226;2023-03-01T16:59:16;18.23;;;15.25;;
19863;SDS011;10094;48.820;9.226;2023-03-01T17:06:02;23.27;;;16.05;;
19863;SDS011;10094;48.820;9.226;2023-03-01T17:12:47;23.27;;;16.25;;
19863;SDS011;10094;48.820;9.226;2023-03-01T17:19:31;27.75;;;19.02;;
19863;SDS011;10094;48.820;9.226;2023-03-01T17:26:13;27.52;;;19.80;;
19863;SDS011;10094;48.820;9.226;2023-03-01T17:32:56;25.40;;;16.25;;
19863;SDS011;10094;48.820;9.226;2023-03-01T17:39:38;22.45;;;16.58;;
19863;SDS011;10094;48.820;9.226;2023-03-01T17:46:20;25.73;;;17.60;;
19863;SDS011;10094;48.820;9.226;2023-03-01T17:53:03;37.38;;;24.65;;
19863;SDS011;10094;48.820;9.226;2023-03-01T17:59:50;28.00;;;18.98;;
19863;SDS011;10094;48.820;9.226;2023-03-01T18:06:32;26.25;;;16.50;;
19863;SDS011;10094;48.820;9.226;2023-03-01T18:13:18;29.25;;;17.38;;
19863;SDS011;10094;48.820;9.226;2023-03-01T18:20:00;25.73;;;16.80;;
19863;SDS011;10094;48.820;9.226;2023-03-01T18:26:42;26.60;;;17.83;;
19863;SDS011;10094;48.820;9.226;2023-03-01T18:33:25;27.35;;;17.77;;
19863;SDS011;10094;48.820;9.226;2023-03-01T18:40:08;33.20;;;19.83;;
19863;SDS011;10094;48.820;9.226;2023-03-01T18:46:51;30.63;;;19.02;;
19863;SDS011;10094;48.820;9.226;2023-03-01T18:53:33;29.45;;;17.73;;
19863;SDS011;10094;48.820;9.226;2023-03-01T19:00:16;29.60;;;18.48;;
19863;SDS011;10094;48.820;9.226;2023-03-01T19:06:59;26.92;;;16.75;;
19863;SDS011;10094;48.820;9.226;2023-03-01T19:13:43;25.05;;;17.35;;
19863;SDS011;10094;48.820;9.226;2023-03-01T19:20:26;28.55;;;18.13;;
19863;SDS011;10094;48.820;9.226;2023-03-01T19:27:09;29.67;;;17.40;;
19863;SDS011;10094;48.820;9.226;2023-03-01T19:33:51;30.60;;;18.92;;
19863;SDS011;10094;48.820;9.226;2023-03-01T19:40:43;28.63;;;18.27;;
19863;SDS011;10094;48.820;9.226;2023-03-01T19:47:25;32.70;;;20.92;;
19863;SDS011;10094;48.820;9.226;2023-03-01T19:54:07;29.40;;;18.17;;
19863;SDS011;10094;48.820;9.226;2023-03-01T20:00:52;29.30;;;19.25;;
19863;SDS011;10094;48.820;9.226;2023-03-01T20:07:41;30.83;;;19.08;;
19863;SDS011;10094;48.820;9.226;2023-03-01T20:14:26;29.65;;;18.40;;
19863;SDS011;10094;48.820;9.226;2023-03-01T20:21:08;28.65;;;19.30;;
19863;SDS011;10094;48.820;9.226;2023-03-01T20:28:04;30.92;;;19.58;;
19863;SDS011;10094;48.820;9.226;2023-03-01T20:34:47;28.13;;;17.73;;
19863;SDS011;10094;48.820;9.226;2023-03-01T20:41:30;29.02;;;18.42;;
19863;SDS011;10094;48.820;9.226;2023-03-01T20:48:12;30.60;;;18.30;;
19863;SDS011;10094;48.820;9.226;2023-03-01T20:54:54;29.10;;;18.73;;
19863;SDS011;10094;48.820;9.226;2023-03-01T21:01:37;26.33;;;17.60;;
19863;SDS011;10094;48.820;9.226;2023-03-01T21:08:21;30.83;;;19.25;;
19863;SDS011;10094;48.820;9.226;2023-03-01T21:15:03;25.00;;;17.58;;
19863;SDS011;10094;48.820;9.226;2023-03-01T21:21:46;28.40;;;18.08;;
19863;SDS011;10094;48.820;9.226;2023-03-01T21:28:29;29.52;;;17.23;;
19863;SDS011;10094;48.820;9.226;2023-03-01T21:35:14;25.75;;;17.67;;
19863;SDS011;10094;48.820;9.226;2023-03-01T21:41:57;28.45;;;17.75;;
19863;SDS011;10094;48.820;9.226;2023-03-01T21:48:40;31.77;;;18.52;;
19863;SDS011;10094;48.820;9.226;2023-03-01T21:55:25;29.80;;;19.73;;
19863;SDS011;10094;48.820;9.226;2023-03-01T22:02:10;27.05;;;18.75;;
19863;SDS011;10094;48.820;9.226;2023-03-01T22:08:58;27.17;;;18.35;;
19863;SDS011;10094;48.820;9.226;2023-03-01T22:15:45;27.08;;;18.05;;
19863;SDS011;10094;48.820;9.226;2023-03-01T22:22:28;26.92;;;17.63;;
19863;SDS011;10094;48.820;9.226;2023-03-01T22:29:12;30.00;;;18.48;;
19863;SDS011;10094;48.820;9.226;2023-03-01T22:35:56;26.58;;;17.60;;
19863;SDS011;10094;48.820;9.226;2023-03-01T22:42:39;26.88;;;17.27;;
19863;SDS011;10094;48.820;9.226;2023-03-01T22:49:22;27.35;;;18.77;;
19863;SDS011;10094;48.820;9.226;2023-03-01T22:56:14;28.17;;;17.63;;
19863;SDS011;10094;48.820;9.226;2023-03-01T23:02:59;26.42;;;17.50;;
19863;SDS011;10094;48.820;9.226;2023-03-01T23:09:41;27.95;;;18.60;;
19863;SDS011;10094;48.820;9.226;2023-03-01T23:16:24;29.63;;;18.48;;
19863;SDS011;10094;48.820;9.226;2023-03-01T23:23:06;34.63;;;19.45;;
19863;SDS011;10094;48.820;9.226;2023-03-01T23:29:50;33.00;;;20.70;;
19863;SDS011;10094;48.820;9.226;2023-03-01T23:36:33;33.25;;;19.42;;
19863;SDS011;10094;48.820;9.226;2023-03-01T23:43:16;28.85;;;18.90;;
19863;SDS011;10094;48.820;9.226;2023-03-01T23:49:58;31.45;;;18.95;;
19863;SDS011;10094;48.820;9.226;2023-03-01T23:56:41;32.95;;;19.83;;
